createdAt,value
2016-08-12T00:00:39.504Z,998.37
2016-08-12T00:01:39.506Z,998.39
2016-08-12T00:03:39.508Z,998.35
2016-08-12T00:04:39.508Z,998.39
2016-08-12T00:05:39.508Z,998.35
2016-08-12T00:06:39.509Z,998.35
2016-08-12T00:07:39.510Z,998.33
2016-08-12T00:08:39.523Z,998.37
2016-08-12T00:09:39.518Z,998.34
2016-08-12T00:10:39.512Z,998.33
2016-08-12T00:11:39.512Z,998.36
2016-08-12T00:12:39.513Z,998.35
2016-08-12T00:13:39.514Z,998.36
2016-08-12T00:14:39.514Z,998.37
2016-08-12T00:15:39.514Z,998.35
2016-08-12T00:16:39.517Z,998.36
2016-08-12T00:17:39.515Z,998.35
2016-08-12T00:18:39.514Z,998.36
2016-08-12T00:19:39.516Z,998.33
2016-08-12T00:20:39.517Z,998.33
2016-08-12T00:21:39.517Z,998.32
2016-08-12T00:22:39.517Z,998.35
2016-08-12T00:23:39.517Z,998.37
2016-08-12T00:24:39.519Z,998.34
2016-08-12T00:25:39.583Z,998.32
2016-08-12T00:26:39.519Z,998.26
2016-08-12T00:27:39.535Z,998.29
2016-08-12T00:28:39.520Z,998.26
2016-08-12T00:29:39.519Z,998.21
2016-08-12T00:30:39.520Z,998.22
2016-08-12T00:31:39.521Z,998.2
2016-08-12T00:32:39.522Z,998.22
2016-08-12T00:33:39.523Z,998.18
2016-08-12T00:34:39.522Z,998.18
2016-08-12T00:35:39.523Z,998.15
2016-08-12T00:36:39.523Z,998.1
2016-08-12T00:37:39.524Z,998.12
2016-08-12T00:38:39.525Z,998.08
2016-08-12T00:39:40.025Z,998.08
2016-08-12T00:40:39.540Z,998.07
2016-08-12T00:41:40.218Z,998.06
2016-08-12T00:42:40.122Z,998.06
2016-08-12T00:43:39.531Z,998.07
2016-08-12T00:44:40.080Z,998.07
2016-08-12T00:45:40.041Z,998.12
2016-08-12T00:46:39.538Z,998.1
2016-08-12T00:47:39.783Z,998.06
2016-08-12T00:48:40.126Z,998.07
2016-08-12T00:49:39.534Z,998.04
2016-08-12T00:50:40.071Z,998.07
2016-08-12T00:51:40.160Z,998.06
2016-08-12T00:52:39.535Z,998.14
2016-08-12T00:53:40.060Z,998.1
2016-08-12T00:54:40.128Z,998.07
2016-08-12T00:55:39.537Z,998.15
2016-08-12T00:56:40.009Z,998.11
2016-08-12T00:57:40.011Z,998.14
2016-08-12T00:58:39.541Z,998.13
2016-08-12T00:59:39.610Z,998.17
2016-08-12T01:00:40.006Z,998.17
2016-08-12T01:01:39.554Z,998.11
2016-08-12T01:02:39.614Z,998.15
2016-08-12T01:03:40.207Z,998.12
2016-08-12T01:04:39.548Z,998.12
2016-08-12T01:05:40.176Z,998.12
2016-08-12T01:06:40.135Z,998.08
2016-08-12T01:07:39.556Z,998.07
2016-08-12T01:08:39.982Z,998.08
2016-08-12T01:09:40.025Z,998.12
2016-08-12T01:10:39.562Z,998.12
2016-08-12T01:11:40.000Z,998.15
2016-08-12T01:12:39.984Z,998.14
2016-08-12T01:13:39.565Z,998.1
2016-08-12T01:14:39.990Z,998.09
2016-08-12T01:15:40.126Z,998.08
2016-08-12T01:16:39.552Z,998.07
2016-08-12T01:17:39.975Z,998.07
2016-08-12T01:18:39.983Z,998.06
2016-08-12T01:19:39.557Z,998.03
2016-08-12T01:20:40.103Z,998.06
2016-08-12T01:21:39.810Z,998
2016-08-12T01:22:39.570Z,998.01
2016-08-12T01:23:39.987Z,998.02
2016-08-12T01:24:40.007Z,998.02
2016-08-12T01:25:39.571Z,998.04
2016-08-12T01:26:40.078Z,998.01
2016-08-12T01:27:40.036Z,998.05
2016-08-12T01:28:39.569Z,998.02
2016-08-12T01:29:40.151Z,998.05
2016-08-12T01:30:39.800Z,998.06
2016-08-12T01:31:39.577Z,998.07
2016-08-12T01:32:40.004Z,998.1
2016-08-12T01:33:39.871Z,998.03
2016-08-12T01:34:39.568Z,998.07
2016-08-12T01:35:40.074Z,998.04
2016-08-12T01:36:39.566Z,998.03
2016-08-12T01:37:39.569Z,998.05
2016-08-12T01:38:39.568Z,998.03
2016-08-12T01:39:39.567Z,997.98
2016-08-12T01:40:39.570Z,997.98
2016-08-12T01:41:39.570Z,997.96
2016-08-12T01:42:39.571Z,997.94
2016-08-12T01:43:39.571Z,998.01
2016-08-12T01:44:39.575Z,998
2016-08-12T01:45:39.572Z,997.98
2016-08-12T01:46:39.572Z,998
2016-08-12T01:47:39.576Z,997.98
2016-08-12T01:48:39.577Z,998
2016-08-12T01:49:39.576Z,997.99
2016-08-12T01:50:39.578Z,998.03
2016-08-12T01:51:39.580Z,998.04
2016-08-12T01:52:39.579Z,998.06
2016-08-12T01:53:39.593Z,998.07
2016-08-12T01:54:39.649Z,998.01
2016-08-12T01:55:39.649Z,998.01
2016-08-12T01:56:39.582Z,998.01
2016-08-12T01:57:39.580Z,998
2016-08-12T01:58:39.580Z,997.96
2016-08-12T01:59:39.583Z,997.96
2016-08-12T02:00:39.583Z,997.91
2016-08-12T02:01:39.580Z,997.88
2016-08-12T02:02:39.584Z,997.9
2016-08-12T02:03:39.584Z,997.89
2016-08-12T02:04:39.582Z,997.89
2016-08-12T02:05:39.585Z,997.89
2016-08-12T02:06:39.585Z,997.87
2016-08-12T02:07:39.587Z,997.85
2016-08-12T02:08:39.586Z,997.85
2016-08-12T02:09:39.590Z,997.85
2016-08-12T02:10:39.589Z,997.83
2016-08-12T02:11:39.588Z,997.82
2016-08-12T02:12:39.590Z,997.85
2016-08-12T02:13:39.620Z,997.84
2016-08-12T02:14:39.590Z,997.88
2016-08-12T02:15:39.595Z,997.8
2016-08-12T02:16:39.590Z,997.81
2016-08-12T02:17:39.591Z,997.78
2016-08-12T02:18:39.596Z,997.79
2016-08-12T02:19:39.612Z,997.83
2016-08-12T02:20:39.597Z,997.83
2016-08-12T02:21:39.598Z,997.8
2016-08-12T02:22:39.595Z,997.85
2016-08-12T02:23:39.599Z,997.82
2016-08-12T02:24:39.594Z,997.82
2016-08-12T02:25:39.595Z,997.78
2016-08-12T02:26:39.596Z,997.85
2016-08-12T02:27:39.598Z,997.87
2016-08-12T02:28:39.596Z,997.87
2016-08-12T02:29:39.598Z,997.84
2016-08-12T02:30:39.599Z,997.88
2016-08-12T02:31:39.600Z,997.86
2016-08-12T02:32:39.599Z,997.86
2016-08-12T02:33:39.599Z,997.86
2016-08-12T02:34:39.599Z,997.88
2016-08-12T02:35:39.601Z,997.88
2016-08-12T02:36:39.601Z,997.87
2016-08-12T02:37:39.599Z,997.89
2016-08-12T02:38:39.601Z,997.85
2016-08-12T02:39:39.603Z,997.84
2016-08-12T02:40:39.603Z,997.9
2016-08-12T02:41:39.605Z,997.9
2016-08-12T02:42:39.602Z,997.88
2016-08-12T02:43:39.603Z,997.92
2016-08-12T02:44:39.604Z,997.9
2016-08-12T02:45:39.603Z,997.93
2016-08-12T02:46:39.609Z,997.92
2016-08-12T02:47:39.609Z,997.89
2016-08-12T02:49:39.604Z,997.98
2016-08-12T02:50:39.607Z,997.94
2016-08-12T02:51:39.627Z,997.92
2016-08-12T02:52:39.605Z,997.92
2016-08-12T02:53:39.607Z,997.95
2016-08-12T02:54:39.607Z,997.91
2016-08-12T02:55:39.606Z,997.91
2016-08-12T02:56:39.610Z,997.91
2016-08-12T02:57:39.610Z,997.97
2016-08-12T02:58:39.612Z,998.01
2016-08-12T02:59:39.611Z,997.94
2016-08-12T03:00:39.610Z,997.95
2016-08-12T03:01:39.613Z,997.98
2016-08-12T03:02:39.611Z,998
2016-08-12T03:03:39.610Z,997.98
2016-08-12T03:04:39.613Z,998.03
2016-08-12T03:05:39.612Z,998.04
2016-08-12T03:06:39.612Z,998.04
2016-08-12T03:07:39.630Z,998
2016-08-12T03:08:39.614Z,998
2016-08-12T03:09:39.616Z,997.96
2016-08-12T03:10:39.615Z,998.02
2016-08-12T03:11:39.615Z,998.05
2016-08-12T03:12:39.618Z,998.02
2016-08-12T03:13:39.616Z,998.09
2016-08-12T03:14:39.616Z,998.06
2016-08-12T03:15:39.620Z,998.1
2016-08-12T03:16:39.618Z,998.06
2016-08-12T03:17:39.618Z,998.05
2016-08-12T03:19:39.619Z,998.09
2016-08-12T03:20:39.622Z,998.1
2016-08-12T03:21:39.620Z,998.09
2016-08-12T03:22:39.620Z,998.1
2016-08-12T03:23:39.623Z,998.16
2016-08-12T03:24:39.622Z,998.16
2016-08-12T03:25:39.622Z,998.17
2016-08-12T03:26:39.625Z,998.18
2016-08-12T03:27:39.624Z,998.19
2016-08-12T03:28:39.626Z,998.23
2016-08-12T03:29:39.629Z,998.24
2016-08-12T03:30:39.625Z,998.19
2016-08-12T03:31:39.629Z,998.2
2016-08-12T03:32:39.625Z,998.19
2016-08-12T03:34:39.631Z,998.2
2016-08-12T03:35:39.626Z,998.17
2016-08-12T03:36:39.626Z,998.22
2016-08-12T03:37:39.628Z,998.25
2016-08-12T03:38:39.630Z,998.26
2016-08-12T03:39:39.627Z,998.22
2016-08-12T03:40:39.630Z,998.24
2016-08-12T03:41:39.630Z,998.26
2016-08-12T03:42:39.629Z,998.31
2016-08-12T03:43:39.630Z,998.28
2016-08-12T03:44:39.631Z,998.31
2016-08-12T03:45:39.632Z,998.31
2016-08-12T03:46:39.632Z,998.34
2016-08-12T03:47:39.632Z,998.29
2016-08-12T03:48:39.632Z,998.28
2016-08-12T03:49:39.633Z,998.31
2016-08-12T03:50:39.633Z,998.3
2016-08-12T03:51:39.639Z,998.28
2016-08-12T03:52:39.634Z,998.32
2016-08-12T03:53:39.634Z,998.32
2016-08-12T03:54:39.634Z,998.28
2016-08-12T03:55:39.635Z,998.35
2016-08-12T03:56:39.635Z,998.26
2016-08-12T03:57:39.635Z,998.35
2016-08-12T03:58:39.640Z,998.34
2016-08-12T03:59:39.636Z,998.39
2016-08-12T04:00:39.637Z,998.36
2016-08-12T04:01:39.638Z,998.38
2016-08-12T04:02:39.639Z,998.36
2016-08-12T04:03:39.642Z,998.38
2016-08-12T04:04:39.643Z,998.38
2016-08-12T04:05:39.638Z,998.38
2016-08-12T04:06:39.638Z,998.37
2016-08-12T04:07:39.639Z,998.41
2016-08-12T04:08:39.638Z,998.32
2016-08-12T04:09:39.639Z,998.35
2016-08-12T04:10:39.641Z,998.35
2016-08-12T04:11:39.641Z,998.3
2016-08-12T04:12:39.640Z,998.33
2016-08-12T04:13:39.641Z,998.35
2016-08-12T04:14:39.642Z,998.35
2016-08-12T04:15:39.642Z,998.41
2016-08-12T04:16:39.641Z,998.38
2016-08-12T04:17:39.643Z,998.39
2016-08-12T04:18:39.643Z,998.48
2016-08-12T04:19:39.641Z,998.42
2016-08-12T04:20:39.647Z,998.48
2016-08-12T04:21:39.645Z,998.5
2016-08-12T04:22:39.644Z,998.5
2016-08-12T04:23:39.643Z,998.49
2016-08-12T04:24:39.644Z,998.53
2016-08-12T04:25:39.644Z,998.52
2016-08-12T04:26:39.653Z,998.5
2016-08-12T04:27:39.644Z,998.49
2016-08-12T04:28:39.646Z,998.5
2016-08-12T04:29:39.646Z,998.48
2016-08-12T04:30:39.646Z,998.47
2016-08-12T04:31:39.648Z,998.52
2016-08-12T04:32:39.647Z,998.49
2016-08-12T04:33:39.650Z,998.46
2016-08-12T04:34:39.646Z,998.48
2016-08-12T04:35:39.648Z,998.45
2016-08-12T04:36:39.650Z,998.46
2016-08-12T04:37:39.648Z,998.46
2016-08-12T04:38:39.648Z,998.49
2016-08-12T04:39:39.649Z,998.49
2016-08-12T04:40:39.650Z,998.51
2016-08-12T04:41:39.649Z,998.52
2016-08-12T04:42:39.650Z,998.55
2016-08-12T04:43:39.650Z,998.57
2016-08-12T04:44:39.651Z,998.55
2016-08-12T04:45:39.651Z,998.55
2016-08-12T04:46:39.651Z,998.54
2016-08-12T04:47:39.651Z,998.57
2016-08-12T04:48:39.653Z,998.57
2016-08-12T04:49:39.655Z,998.58
2016-08-12T04:50:39.653Z,998.58
2016-08-12T04:51:39.653Z,998.61
2016-08-12T04:52:39.654Z,998.61
2016-08-12T04:53:39.654Z,998.58
2016-08-12T04:54:39.654Z,998.6
2016-08-12T04:55:39.655Z,998.63
2016-08-12T04:56:39.655Z,998.59
2016-08-12T04:57:39.656Z,998.58
2016-08-12T04:58:39.658Z,998.63
2016-08-12T04:59:39.657Z,998.6
2016-08-12T05:00:39.668Z,998.65
2016-08-12T05:01:39.658Z,998.63
2016-08-12T05:02:39.659Z,998.65
2016-08-12T05:03:39.659Z,998.64
2016-08-12T05:04:39.663Z,998.64
2016-08-12T05:05:39.664Z,998.66
2016-08-12T05:06:39.662Z,998.65
2016-08-12T05:07:39.661Z,998.6
2016-08-12T05:08:39.662Z,998.66
2016-08-12T05:09:39.664Z,998.69
2016-08-12T05:10:39.662Z,998.65
2016-08-12T05:11:39.663Z,998.64
2016-08-12T05:12:39.664Z,998.69
2016-08-12T05:13:39.665Z,998.7
2016-08-12T05:14:39.666Z,998.74
2016-08-12T05:15:39.666Z,998.67
2016-08-12T05:16:39.667Z,998.67
2016-08-12T05:17:39.668Z,998.69
2016-08-12T05:18:39.667Z,998.72
2016-08-12T05:19:39.673Z,998.71
2016-08-12T05:20:39.670Z,998.71
2016-08-12T05:21:39.669Z,998.72
2016-08-12T05:22:39.670Z,998.74
2016-08-12T05:23:39.672Z,998.73
2016-08-12T05:24:39.672Z,998.73
2016-08-12T05:25:39.672Z,998.7
2016-08-12T05:26:39.673Z,998.74
2016-08-12T05:27:39.675Z,998.73
2016-08-12T05:28:39.677Z,998.76
2016-08-12T05:29:39.675Z,998.76
2016-08-12T05:30:39.676Z,998.77
2016-08-12T05:31:39.678Z,998.77
2016-08-12T05:32:39.677Z,998.75
2016-08-12T05:33:39.678Z,998.75
2016-08-12T05:34:39.678Z,998.75
2016-08-12T05:35:39.680Z,998.75
2016-08-12T05:36:39.679Z,998.77
2016-08-12T05:37:39.680Z,998.78
2016-08-12T05:38:39.681Z,998.78
2016-08-12T05:39:39.682Z,998.82
2016-08-12T05:40:39.683Z,998.85
2016-08-12T05:41:39.683Z,998.84
2016-08-12T05:42:39.683Z,998.86
2016-08-12T05:43:39.687Z,998.89
2016-08-12T05:44:39.687Z,998.84
2016-08-12T05:45:39.685Z,998.9
2016-08-12T05:46:39.687Z,998.87
2016-08-12T05:47:39.687Z,998.87
2016-08-12T05:48:39.686Z,998.86
2016-08-12T05:49:39.689Z,998.88
2016-08-12T05:50:39.688Z,998.9
2016-08-12T05:51:39.688Z,998.94
2016-08-12T05:52:39.689Z,998.92
2016-08-12T05:53:39.689Z,998.98
2016-08-12T05:54:39.694Z,998.97
2016-08-12T05:55:39.693Z,999
2016-08-12T05:56:39.691Z,998.98
2016-08-12T05:57:39.699Z,999.02
2016-08-12T05:58:39.693Z,999.04
2016-08-12T05:59:39.693Z,999.05
2016-08-12T06:00:39.695Z,999.01
2016-08-12T06:01:39.696Z,999.05
2016-08-12T06:02:39.697Z,999.07
2016-08-12T06:03:39.701Z,999.06
2016-08-12T06:04:39.699Z,999.1
2016-08-12T06:05:39.697Z,999.08
2016-08-12T06:06:39.698Z,999.1
2016-08-12T06:07:39.699Z,999.08
2016-08-12T06:08:39.701Z,999.09
2016-08-12T06:09:39.700Z,999.11
2016-08-12T06:10:39.701Z,999.14
2016-08-12T06:11:39.703Z,999.12
2016-08-12T06:12:39.704Z,999.11
2016-08-12T06:13:39.703Z,999.13
2016-08-12T06:14:39.705Z,999.1
2016-08-12T06:15:39.708Z,999.1
2016-08-12T06:16:39.704Z,999.1
2016-08-12T06:17:39.707Z,999.11
2016-08-12T06:18:39.708Z,999.12
2016-08-12T06:19:39.709Z,999.12
2016-08-12T06:20:39.707Z,999.11
2016-08-12T06:21:39.711Z,999.12
2016-08-12T06:22:39.710Z,999.07
2016-08-12T06:23:39.712Z,999.05
2016-08-12T06:24:39.711Z,999.08
2016-08-12T06:25:39.713Z,999.08
2016-08-12T06:26:39.713Z,999.05
2016-08-12T06:27:39.713Z,999.09
2016-08-12T06:28:39.715Z,999.1
2016-08-12T06:29:39.718Z,999.12
2016-08-12T06:30:39.716Z,999.13
2016-08-12T06:31:39.718Z,999.15
2016-08-12T06:32:39.719Z,999.14
2016-08-12T06:33:39.728Z,999.23
2016-08-12T06:34:39.720Z,999.22
2016-08-12T06:35:39.723Z,999.22
2016-08-12T06:36:39.723Z,999.22
2016-08-12T06:37:39.724Z,999.22
2016-08-12T06:38:39.726Z,999.21
2016-08-12T06:39:39.730Z,999.16
2016-08-12T06:40:39.728Z,999.17
2016-08-12T06:41:39.729Z,999.21
2016-08-12T06:42:39.730Z,999.21
2016-08-12T06:43:39.731Z,999.17
2016-08-12T06:44:39.732Z,999.17
2016-08-12T06:45:39.733Z,999.21
2016-08-12T06:46:39.735Z,999.24
2016-08-12T06:47:39.739Z,999.26
2016-08-12T06:48:39.741Z,999.21
2016-08-12T06:49:39.746Z,999.18
2016-08-12T06:50:39.741Z,999.21
2016-08-12T06:51:39.743Z,999.19
2016-08-12T06:52:39.746Z,999.22
2016-08-12T06:53:39.745Z,999.21
2016-08-12T06:54:39.749Z,999.24
2016-08-12T06:55:39.747Z,999.2
2016-08-12T06:56:39.750Z,999.24
2016-08-12T06:57:39.757Z,999.25
2016-08-12T06:58:39.756Z,999.27
2016-08-12T06:59:39.756Z,999.28
2016-08-12T07:00:39.755Z,999.27
2016-08-12T07:01:39.768Z,999.24
2016-08-12T07:02:39.768Z,999.24
2016-08-12T07:03:39.761Z,999.26
2016-08-12T07:04:39.761Z,999.25
2016-08-12T07:05:39.763Z,999.26
2016-08-12T07:06:39.764Z,999.24
2016-08-12T07:07:39.768Z,999.26
2016-08-12T07:08:39.767Z,999.28
2016-08-12T07:09:39.770Z,999.25
2016-08-12T07:10:39.772Z,999.27
2016-08-12T07:11:39.772Z,999.22
2016-08-12T07:12:39.773Z,999.28
2016-08-12T07:13:39.775Z,999.3
2016-08-12T07:14:39.778Z,999.28
2016-08-12T07:15:39.789Z,999.28
2016-08-12T07:16:39.780Z,999.31
2016-08-12T07:17:39.783Z,999.31
2016-08-12T07:18:39.782Z,999.34
2016-08-12T07:19:39.784Z,999.32
2016-08-12T07:20:39.787Z,999.32
2016-08-12T07:21:39.788Z,999.32
2016-08-12T07:22:39.794Z,999.31
2016-08-12T07:23:39.792Z,999.33
2016-08-12T07:24:39.792Z,999.34
2016-08-12T07:25:39.794Z,999.33
2016-08-12T07:26:39.794Z,999.38
2016-08-12T07:27:39.801Z,999.36
2016-08-12T07:28:39.798Z,999.38
2016-08-12T07:29:39.800Z,999.37
2016-08-12T07:30:39.801Z,999.38
2016-08-12T07:31:39.803Z,999.4
2016-08-12T07:32:39.806Z,999.4
2016-08-12T07:33:39.805Z,999.35
2016-08-12T07:34:39.806Z,999.39
2016-08-12T07:35:39.808Z,999.39
2016-08-12T07:36:39.810Z,999.42
2016-08-12T07:37:39.812Z,999.42
2016-08-12T07:38:39.813Z,999.41
2016-08-12T07:39:39.814Z,999.43
2016-08-12T07:40:39.815Z,999.43
2016-08-12T07:41:39.819Z,999.43
2016-08-12T07:42:39.818Z,999.42
2016-08-12T07:43:39.821Z,999.4
2016-08-12T07:44:39.822Z,999.39
2016-08-12T07:45:39.824Z,999.4
2016-08-12T07:46:39.825Z,999.38
2016-08-12T07:47:39.831Z,999.39
2016-08-12T07:48:39.828Z,999.42
2016-08-12T07:49:39.831Z,999.43
2016-08-12T07:50:39.832Z,999.42
2016-08-12T07:51:39.833Z,999.45
2016-08-12T07:52:39.835Z,999.45
2016-08-12T07:53:39.837Z,999.47
2016-08-12T07:54:39.838Z,999.47
2016-08-12T07:55:39.839Z,999.49
2016-08-12T07:56:39.842Z,999.47
2016-08-12T07:57:39.844Z,999.49
2016-08-12T07:58:39.845Z,999.51
2016-08-12T07:59:39.848Z,999.57
2016-08-12T08:00:39.850Z,999.55
2016-08-12T08:01:39.850Z,999.56
2016-08-12T08:02:39.851Z,999.55
2016-08-12T08:03:39.853Z,999.64
2016-08-12T08:04:39.854Z,999.61
2016-08-12T08:05:39.860Z,999.63
2016-08-12T08:06:39.857Z,999.62
2016-08-12T08:07:39.858Z,999.6
2016-08-12T08:08:39.861Z,999.63
2016-08-12T08:09:39.862Z,999.62
2016-08-12T08:10:39.864Z,999.61
2016-08-12T08:11:39.874Z,999.62
2016-08-12T08:12:39.877Z,999.61
2016-08-12T08:13:39.874Z,999.59
2016-08-12T08:14:39.886Z,999.64
2016-08-12T08:15:39.876Z,999.62
2016-08-12T08:16:39.878Z,999.62
2016-08-12T08:17:39.878Z,999.6
2016-08-12T08:18:39.879Z,999.61
2016-08-12T08:19:39.880Z,999.65
2016-08-12T08:20:39.881Z,999.66
2016-08-12T08:21:39.882Z,999.68
2016-08-12T08:22:39.885Z,999.64
2016-08-12T08:23:39.887Z,999.65
2016-08-12T08:24:39.888Z,999.64
2016-08-12T08:25:39.890Z,999.67
2016-08-12T08:26:39.892Z,999.66
2016-08-12T08:27:39.896Z,999.66
2016-08-12T08:28:39.896Z,999.7
2016-08-12T08:29:39.897Z,999.67
2016-08-12T08:30:39.900Z,999.66
2016-08-12T08:31:39.901Z,999.67
2016-08-12T08:32:39.904Z,999.63
2016-08-12T08:33:39.906Z,999.64
2016-08-12T08:35:39.910Z,999.6
2016-08-12T08:36:39.911Z,999.63
2016-08-12T08:37:39.913Z,999.62
2016-08-12T08:38:39.916Z,999.64
2016-08-12T08:39:39.917Z,999.6
2016-08-12T08:40:39.927Z,999.65
2016-08-12T08:41:39.931Z,999.65
2016-08-12T08:42:39.933Z,999.65
2016-08-12T08:43:39.929Z,999.65
2016-08-12T08:44:39.936Z,999.65
2016-08-12T08:45:39.939Z,999.65
2016-08-12T08:46:39.942Z,999.64
2016-08-12T08:47:39.935Z,999.65
2016-08-12T08:48:39.937Z,999.67
2016-08-12T08:50:39.943Z,999.69
2016-08-12T08:51:39.944Z,999.68
2016-08-12T08:52:39.946Z,999.67
2016-08-12T08:53:39.955Z,999.66
2016-08-12T08:54:39.954Z,999.66
2016-08-12T08:55:39.957Z,999.64
2016-08-12T08:56:39.961Z,999.68
2016-08-12T08:57:39.962Z,999.69
2016-08-12T08:58:39.964Z,999.69
2016-08-12T08:59:39.964Z,999.69
2016-08-12T09:00:39.967Z,999.69
2016-08-12T09:01:39.968Z,999.74
2016-08-12T09:02:39.970Z,999.73
2016-08-12T09:03:39.987Z,999.71
2016-08-12T09:04:39.975Z,999.69
2016-08-12T09:05:39.976Z,999.69
2016-08-12T09:06:39.980Z,999.72
2016-08-12T09:07:39.989Z,999.7
2016-08-12T09:08:39.983Z,999.69
2016-08-12T09:09:39.987Z,999.68
2016-08-12T09:10:39.993Z,999.7
2016-08-12T09:11:39.993Z,999.75
2016-08-12T09:12:40.004Z,999.71
2016-08-12T09:13:40.007Z,999.74
2016-08-12T09:14:40.007Z,999.75
2016-08-12T09:15:40.006Z,999.78
2016-08-12T09:16:40.008Z,999.79
2016-08-12T09:17:40.015Z,999.82
2016-08-12T09:18:40.009Z,999.79
2016-08-12T09:19:40.010Z,999.77
2016-08-12T09:20:40.014Z,999.78
2016-08-12T09:21:40.028Z,999.79
2016-08-12T09:22:40.019Z,999.81
2016-08-12T09:23:40.020Z,999.81
2016-08-12T09:24:40.022Z,999.74
2016-08-12T09:25:40.025Z,999.79
2016-08-12T09:26:40.028Z,999.78
2016-08-12T09:27:40.030Z,999.81
2016-08-12T09:28:40.033Z,999.78
2016-08-12T09:29:40.035Z,999.86
2016-08-12T09:30:40.038Z,999.86
2016-08-12T09:31:40.040Z,999.81
2016-08-12T09:32:40.045Z,999.81
2016-08-12T09:33:40.044Z,999.8
2016-08-12T09:34:40.047Z,999.83
2016-08-12T09:35:40.049Z,999.88
2016-08-12T09:36:40.063Z,999.92
2016-08-12T09:37:40.059Z,999.91
2016-08-12T09:38:40.056Z,999.89
2016-08-12T09:39:40.059Z,999.91
2016-08-12T09:40:40.062Z,999.9
2016-08-12T09:41:40.063Z,999.88
2016-08-12T09:42:40.066Z,999.87
2016-08-12T09:43:40.068Z,999.91
2016-08-12T09:44:40.073Z,999.91
2016-08-12T09:45:40.073Z,999.9
2016-08-12T09:46:40.077Z,999.89
2016-08-12T09:47:40.079Z,999.88
2016-08-12T09:48:40.081Z,999.89
2016-08-12T09:49:40.087Z,999.92
2016-08-12T09:50:40.086Z,999.91
2016-08-12T09:51:40.093Z,999.91
2016-08-12T09:52:40.090Z,999.9
2016-08-12T09:53:40.094Z,999.93
2016-08-12T09:54:40.097Z,999.87
2016-08-12T09:55:40.100Z,999.87
2016-08-12T09:56:40.105Z,999.89
2016-08-12T09:57:40.119Z,999.9
2016-08-12T09:58:40.114Z,999.92
2016-08-12T09:59:40.114Z,999.93
2016-08-12T10:00:40.112Z,999.9
2016-08-12T10:01:40.118Z,999.91
2016-08-12T10:02:40.119Z,999.97
2016-08-12T10:03:40.121Z,999.95
2016-08-12T10:04:40.125Z,999.95
2016-08-12T10:05:40.129Z,999.95
2016-08-12T10:06:40.130Z,999.95
2016-08-12T10:07:40.133Z,999.95
2016-08-12T10:08:40.136Z,999.94
2016-08-12T10:09:40.139Z,999.93
2016-08-12T10:10:40.140Z,999.91
2016-08-12T10:11:40.144Z,999.93
2016-08-12T10:12:40.147Z,999.94
2016-08-12T10:13:40.157Z,999.94
2016-08-12T10:14:40.156Z,999.93
2016-08-12T10:15:40.159Z,999.94
2016-08-12T10:16:40.159Z,999.92
2016-08-12T10:17:40.162Z,999.95
2016-08-12T10:18:40.164Z,999.96
2016-08-12T10:19:40.166Z,999.99
2016-08-12T10:20:40.169Z,999.97
2016-08-12T10:21:40.172Z,999.99
2016-08-12T10:22:40.177Z,1000.01
2016-08-12T10:23:40.177Z,1000.01
2016-08-12T10:24:40.181Z,1000.03
2016-08-12T10:25:40.183Z,1000.05
2016-08-12T10:26:40.189Z,1000.03
2016-08-12T10:27:40.189Z,1000.04
2016-08-12T10:28:40.191Z,1000.04
2016-08-12T10:29:40.194Z,1000
2016-08-12T10:30:40.202Z,1000.06
2016-08-12T10:31:40.206Z,1000.01
2016-08-12T10:32:40.209Z,999.99
2016-08-12T10:33:40.206Z,1000.01
2016-08-12T10:34:40.211Z,1000.04
2016-08-12T10:35:40.235Z,999.98
2016-08-12T10:36:40.211Z,1000
2016-08-12T10:37:40.215Z,999.99
2016-08-12T10:38:40.218Z,999.99
2016-08-12T10:39:40.219Z,1000.01
2016-08-12T10:40:40.232Z,1000.03
2016-08-12T10:41:40.235Z,1000
2016-08-12T10:42:40.233Z,1000.02
2016-08-12T10:43:40.234Z,1000.06
2016-08-12T10:44:40.235Z,1000.06
2016-08-12T10:45:40.237Z,1000.07
2016-08-12T10:46:40.238Z,1000.04
2016-08-12T10:47:40.241Z,1000.1
2016-08-12T10:48:40.244Z,1000.08
2016-08-12T10:49:40.250Z,1000.09
2016-08-12T10:50:40.248Z,1000.1
2016-08-12T10:51:40.253Z,1000.02
2016-08-12T10:52:40.256Z,1000.01
2016-08-12T10:53:40.256Z,1000.01
2016-08-12T10:54:40.260Z,1000
2016-08-12T10:55:40.263Z,999.98
2016-08-12T10:56:40.274Z,999.99
2016-08-12T10:57:40.268Z,999.99
2016-08-12T10:58:40.279Z,999.97
2016-08-12T10:59:40.277Z,999.97
2016-08-12T11:00:40.281Z,999.99
2016-08-12T11:01:40.279Z,999.99
2016-08-12T11:02:40.283Z,999.98
2016-08-12T11:03:40.287Z,999.98
2016-08-12T11:04:40.295Z,999.99
2016-08-12T11:05:40.311Z,999.98
2016-08-12T11:06:40.296Z,999.97
2016-08-12T11:07:40.304Z,999.98
2016-08-12T11:08:40.308Z,999.99
2016-08-12T11:09:40.305Z,1000.02
2016-08-12T11:10:40.318Z,1000.03
2016-08-12T11:11:40.308Z,1000.05
2016-08-12T11:12:40.308Z,1000.07
2016-08-12T11:13:40.312Z,1000.09
2016-08-12T11:14:40.317Z,1000.12
2016-08-12T11:15:40.318Z,1000.13
2016-08-12T11:16:40.319Z,1000.2
2016-08-12T11:17:40.329Z,1000.2
2016-08-12T11:18:40.325Z,1000.19
2016-08-12T11:19:40.335Z,1000.23
2016-08-12T11:20:40.332Z,1000.23
2016-08-12T11:21:40.334Z,1000.25
2016-08-12T11:22:40.338Z,1000.25
2016-08-12T11:23:40.341Z,1000.3
2016-08-12T11:24:40.345Z,1000.3
2016-08-12T11:25:40.347Z,1000.37
2016-08-12T11:26:40.350Z,1000.34
2016-08-12T11:27:40.352Z,1000.41
2016-08-12T11:28:40.355Z,1000.44
2016-08-12T11:29:40.358Z,1000.5
2016-08-12T11:30:40.363Z,1000.46
2016-08-12T11:31:40.367Z,1000.46
2016-08-12T11:32:40.366Z,1000.53
2016-08-12T11:33:40.370Z,1000.56
2016-08-12T11:34:40.372Z,1000.6
2016-08-12T11:35:40.375Z,1000.58
2016-08-12T11:36:40.377Z,1000.66
2016-08-12T11:37:40.381Z,1000.62
2016-08-12T11:38:40.383Z,1000.63
2016-08-12T11:39:40.385Z,1000.67
2016-08-12T11:40:40.388Z,1000.66
2016-08-12T11:41:40.390Z,1000.68
2016-08-12T11:42:40.394Z,1000.67
2016-08-12T11:43:40.396Z,1000.69
2016-08-12T11:44:40.399Z,1000.67
2016-08-12T11:45:40.401Z,1000.7
2016-08-12T11:46:40.406Z,1000.71
2016-08-12T11:47:40.408Z,1000.68
2016-08-12T11:48:40.411Z,1000.7
2016-08-12T11:49:40.415Z,1000.71
2016-08-12T11:50:40.420Z,1000.72
2016-08-12T11:51:40.420Z,1000.72
2016-08-12T11:52:40.421Z,1000.74
2016-08-12T11:53:40.427Z,1000.72
2016-08-12T11:54:40.428Z,1000.75
2016-08-12T11:55:40.433Z,1000.78
2016-08-12T11:56:40.433Z,1000.79
2016-08-12T11:57:40.446Z,1000.78
2016-08-12T11:58:40.440Z,1000.73
2016-08-12T11:59:40.453Z,1000.77
2016-08-12T12:00:40.452Z,1000.78
2016-08-12T12:01:40.460Z,1000.71
2016-08-12T12:02:40.453Z,1000.69
2016-08-12T12:03:40.457Z,1000.72
2016-08-12T12:04:40.459Z,1000.71
2016-08-12T12:05:40.463Z,1000.68
2016-08-12T12:06:40.466Z,1000.65
2016-08-12T12:07:40.470Z,1000.61
2016-08-12T12:08:40.473Z,1000.59
2016-08-12T12:09:40.482Z,1000.59
2016-08-12T12:10:40.489Z,1000.61
2016-08-12T12:11:40.483Z,1000.58
2016-08-12T12:12:40.489Z,1000.58
2016-08-12T12:13:40.493Z,1000.59
2016-08-12T12:14:40.503Z,1000.6
2016-08-12T12:15:40.496Z,1000.56
2016-08-12T12:16:40.501Z,1000.57
2016-08-12T12:17:40.504Z,1000.54
2016-08-12T12:18:40.506Z,1000.51
2016-08-12T12:19:40.510Z,1000.5
2016-08-12T12:20:40.514Z,1000.48
2016-08-12T12:21:40.543Z,1000.52
2016-08-12T12:22:40.521Z,1000.52
2016-08-12T12:23:40.529Z,1000.55
2016-08-12T12:24:40.527Z,1000.53
2016-08-12T12:25:40.530Z,1000.54
2016-08-12T12:26:40.532Z,1000.55
2016-08-12T12:27:40.536Z,1000.57
2016-08-12T12:28:40.542Z,1000.62
2016-08-12T12:29:40.543Z,1000.65
2016-08-12T12:30:40.563Z,1000.59
2016-08-12T12:31:40.555Z,1000.55
2016-08-12T12:32:40.553Z,1000.5
2016-08-12T12:33:40.560Z,1000.5
2016-08-12T12:34:40.560Z,1000.53